Ellerslie, Georgia
Current Conditions -  °F | °C
As of 7:51 AM on Friday 28 Nov 2014 (Local Time) from KCSG Reporting Station
Clear Clear  
Wind Chill: 32°   Ceiling: Unl
Heat Index: 32°   Visibility: 10mi
Dew Point: 24°   Wind: 0mph
Humidity: 73%   Direction: NA
Pressure: 30.41"   Gusts: NA
Location:  32.63°N, 84.8°W
Report Text: KCSG 281251Z AUTO 00000KT 10SM CLR 00/M04 A3041 RMK AO2 SLP299 T00001044 TSNO
Loading
Personal Weather Stations






























Interactive Weather Map New forecast layout! Learn more

10-Day Weather Forecast

Advertisements
Track Severe Weather on mobile